Aalter, Belgium
Current Conditions -  °F | °C
As of 2:25 AM on Friday 28 Nov 2014 (Local Time) from EHFS Reporting Station
Overcast Overcast  
Wind Chill: 10°   Ceiling: 1500
Heat Index: 10°   Visibility: 4mi
Dew Point:   Wind: 15mph
Humidity: 94%   Direction: 100°E
Pressure: 29.65"   Gusts: NA
Location:  51.09°N, 3.45°E
Report Text: EHFS 280125Z AUTO 10013KT 7000 FEW005/// OVC015/// 10/09 Q1004
Loading
Personal Weather Stations






























Interactive Weather Map New forecast layout! Learn more

10-Day Weather Forecast

Advertisements
Track Severe Weather on mobile